Latest Weather Observations for Willis Island

IDQ60801

Issued at 11:22 pm EST Monday 26 September 2022 (issued every 10 minutes, with the page automatically refreshed every 10 minutes)

About weather observations | Map of weather stations | Latest weather observations for QLD | Other Formats
Station Details ID: 200283 Name: WILLIS ISLAND Lat: -16.29 Lon: 149.97 Height: 9.29 m
Data from the previous 72 hours. | See also: Recent months at Willis Island
Date/Time
EST
Temp
°C
App
Temp
°C
Dew
Point
°C
Rel
Hum
%
Delta-T
°C
Wind Press
QNH
hPa
Press
MSL
hPa
Rain since
9am
mm
Dir  Spd
km/h
Gust
km/h
Spd
kts
Gust
kts
26/11:00pm 26.3 24.7 20.8 71 3.6 ESE 30 35 16 19 1013.1 1013.0 0.0
26/10:30pm 26.2 24.0 20.3 70 3.9 ESE 32 37 17 20 1013.3 1013.2 0.0
26/10:00pm 26.3 24.0 20.6 71 3.7 E 33 39 18 21 1013.1 1013.0 0.0
26/09:30pm 26.2 24.4 20.3 70 3.9 ESE 30 37 16 20 1013.3 1013.2 0.0
26/09:00pm 26.3 24.3 20.8 71 3.6 ESE 32 37 17 20 1013.0 1012.9 0.0
26/08:30pm 26.2 24.0 20.3 70 3.9 ESE 32 35 17 19 1012.7 1012.6 0.0
26/08:00pm 26.2 24.0 20.8 72 3.6 ESE 33 37 18 20 1012.6 1012.5 0.0
26/07:30pm 26.4 24.3 20.9 72 3.6 ESE 33 39 18 21 1012.3 1012.2 0.0
26/07:00pm 26.3 24.5 21.1 73 3.4 ESE 32 35 17 19 1012.0 1011.9 0.0
26/06:30pm 26.3 24.1 20.4 70 3.9 ESE 32 35 17 19 1011.6 1011.5 0.0
26/06:00pm 26.4 24.0 20.3 69 4.0 ESE 33 37 18 20 1011.3 1011.2 0.0
26/05:30pm 26.6 24.2 20.4 68 4.1 ESE 33 35 18 19 1011.1 1011.0 0.0
26/05:00pm 26.8 24.4 20.4 68 4.2 ESE 33 39 18 21 1010.7 1010.6 0.0
26/04:30pm 27.4 25.4 21.2 69 4.1 ESE 33 39 18 21 1010.5 1010.4 0.0
26/04:00pm 27.5 25.2 20.1 64 4.8 ESE 32 37 17 20 1010.5 1010.4 0.0
26/03:30pm 28.1 26.3 20.4 63 5.1 ESE 30 35 16 19 1010.5 1010.4 0.0
26/03:00pm 28.5 26.9 20.8 63 5.1 ESE 30 33 16 18 1010.6 1010.5 0.0
26/02:30pm 28.3 25.6 19.2 57 5.9 ESE 32 37 17 20 1010.6 1010.5 0.0
26/02:00pm 28.6 26.8 20.3 60 5.5 ESE 30 35 16 19 1010.9 1010.8 0.0
26/01:30pm 28.7 26.4 20.2 60 5.6 ESE 32 35 17 19 1011.5 1011.4 0.0
26/01:00pm 29.1 27.4 21.3 62 5.2 ESE 32 35 17 19 1012.0 1011.9 0.0
26/12:30pm 28.6 26.3 20.1 60 5.6 ESE 32 35 17 19 1012.5 1012.4 0.0
26/12:00pm 29.4 28.3 21.1 61 5.5 ESE 28 33 15 18 1013.0 1012.9 0.0
26/11:30am 28.8 27.5 21.3 64 5.0 ESE 30 33 16 18 1013.3 1013.2 0.0
26/11:00am 28.8 27.5 21.3 64 5.0 ESE 30 37 16 20 1013.6 1013.5 0.0
26/10:30am 28.9 28.0 22.2 67 4.5 ESE 30 35 16 19 1013.8 1013.7 0.0
26/10:00am 28.4 26.7 21.4 66 4.7 ESE 32 37 17 20 1013.9 1013.8 0.0
26/09:30am 28.4 27.1 21.4 66 4.7 ESE 30 33 16 18 1014.1 1014.0 0.0
26/09:00am 28.1 26.5 21.6 68 4.3 E 32 35 17 19 1014.1 1014.0 0.0
26/08:30am 27.8 26.0 21.1 67 4.4 E 32 37 17 20 1013.9 1013.8 0.0
26/08:00am 27.8 27.1 21.8 70 4.0 ESE 28 35 15 19 1013.7 1013.6 0.0
26/07:30am 27.0 24.9 20.6 68 4.2 E 32 37 17 20 1013.3 1013.2 0.0
26/07:00am 26.8 24.3 20.2 67 4.3 E 33 35 18 19 1013.0 1012.9 0.0
26/06:30am 26.3 23.9 19.9 68 4.2 E 32 35 17 19 1012.8 1012.7 0.0
26/06:00am 25.9 23.3 20.0 70 3.8 ESE 33 39 18 21 1012.6 1012.5 0.0
26/05:30am 26.1 24.2 21.3 75 3.2 E 33 37 18 20 1012.2 1012.1 0.0
26/05:00am 25.9 23.7 20.7 73 3.4 ESE 33 39 18 21 1011.8 1011.7 0.0
26/04:30am 25.9 23.6 20.5 72 3.5 ESE 33 37 18 20 1011.7 1011.6 0.0
26/04:00am 25.7 22.7 19.1 67 4.2 E 33 39 18 21 1011.4 1011.3 0.0
26/03:30am 26.0 23.8 20.8 73 3.4 E 33 39 18 21 1011.4 1011.3 0.0
26/03:00am 25.9 23.0 20.0 70 3.8 ESE 35 41 19 22 1011.5 1011.4 0.0
26/02:30am 25.9 23.4 20.2 71 3.7 ESE 33 39 18 21 1011.8 1011.7 0.0
26/02:00am 26.1 24.2 21.3 75 3.2 SE 33 41 18 22 1012.1 1012.0 0.0
26/01:30am 26.0 24.1 21.0 74 3.3 SE 32 39 17 21 1012.6 1012.5 0.0
26/01:00am 26.0 23.8 20.8 73 3.4 ESE 33 37 18 20 1013.0 1012.9 0.0
26/12:30am 26.1 24.2 20.9 73 3.4 ESE 32 37 17 20 1013.4 1013.3 0.0
26/12:00am 26.2 23.8 20.3 70 3.9 ESE 33 39 18 21 1013.7 1013.6 0.0
 
Date/Time
EST
Temp
°C
App
Temp
°C
Dew
Point
°C
Rel
Hum
%
Delta-T
°C
Wind Press
QNH
hPa
Press
MSL
hPa
Rain since
9am
mm
Dir  Spd
km/h
Gust
km/h
Spd
kts
Gust
kts
25/11:30pm 26.2 24.2 20.8 72 3.6 ESE 32 37 17 20 1014.0 1013.9 0.0
25/11:00pm 26.4 25.0 21.2 73 3.4 ESE 30 35 16 19 1014.2 1014.1 0.0
25/10:30pm 26.4 24.4 20.7 71 3.7 ESE 32 37 17 20 1014.2 1014.1 0.0
25/10:00pm 26.3 24.2 20.6 71 3.7 ESE 32 35 17 19 1014.2 1014.1 0.0
25/09:30pm 26.3 24.3 20.8 71 3.6 ESE 32 35 17 19 1014.2 1014.1 0.0
25/09:00pm 26.4 24.5 20.9 72 3.6 ESE 32 35 17 19 1014.1 1014.0 0.0
25/08:30pm 26.5 24.5 20.8 71 3.8 ESE 32 35 17 19 1013.9 1013.8 0.0
25/08:00pm 26.3 24.5 20.4 70 3.9 ESE 30 35 16 19 1013.5 1013.4 0.0
25/07:30pm 26.4 24.2 20.3 69 4.0 ESE 32 37 17 20 1013.2 1013.1 0.0
25/07:00pm 26.4 24.2 20.3 69 4.0 ESE 32 37 17 20 1012.8 1012.7 0.0
25/06:30pm 26.5 24.0 20.1 68 4.2 ESE 33 39 18 21 1012.3 1012.2 0.0
25/06:00pm 26.5 24.2 20.6 70 3.9 ESE 33 39 18 21 1011.9 1011.8 0.0
25/05:30pm 26.7 24.2 20.1 67 4.3 ESE 33 37 18 20 1011.5 1011.4 0.0
25/05:00pm 27.0 24.5 20.1 66 4.5 ESE 33 39 18 21 1011.2 1011.1 0.0
25/04:30pm 27.4 24.3 19.7 63 5.0 ESE 35 39 19 21 1011.1 1011.0 0.0
25/04:00pm 27.7 25.3 20.0 63 5.0 ESE 32 37 17 20 1011.2 1011.1 0.0
25/03:30pm 28.0 25.6 20.0 61 5.2 ESE 32 37 17 20 1011.1 1011.0 0.0
25/03:00pm 28.1 25.9 20.4 63 5.1 ESE 32 37 17 20 1011.1 1011.0 0.0
25/02:30pm 28.6 26.4 20.3 60 5.5 ESE 32 39 17 21 1011.5 1011.4 0.0
25/02:00pm 28.6 26.2 20.3 60 5.5 ESE 33 39 18 21 1011.8 1011.7 0.0
25/01:30pm 28.9 27.1 21.1 62 5.2 ESE 32 39 17 21 1011.9 1011.8 0.0
25/01:00pm 28.6 26.5 20.6 62 5.3 ESE 32 37 17 20 1012.3 1012.2 0.0
25/12:30pm 28.8 27.1 21.3 64 5.0 ESE 32 37 17 20 1012.8 1012.7 0.0
25/12:00pm 28.7 26.3 20.4 60 5.5 ESE 33 37 18 20 1013.2 1013.1 0.0
25/11:30am 28.9 26.9 21.1 62 5.2 ESE 33 37 18 20 1013.5 1013.4 0.0
25/11:00am 28.8 27.1 21.3 64 5.0 ESE 32 37 17 20 1013.7 1013.6 0.0
25/10:30am 29.1 27.9 22.3 66 4.6 ESE 32 37 17 20 1014.1 1014.0 0.0
25/10:00am 28.6 26.7 21.4 65 4.8 ESE 33 39 18 21 1014.3 1014.2 0.0
25/09:30am 28.5 27.0 21.8 67 4.5 ESE 32 37 17 20 1014.4 1014.3 0.0
25/09:00am 28.0 26.0 20.8 65 4.8 ESE 32 39 17 21 1014.3 1014.2 0.0
25/08:30am 27.7 26.0 21.3 68 4.3 ESE 32 37 17 20 1014.2 1014.1 0.0
25/08:00am 27.2 25.7 21.0 69 4.1 ESE 30 35 16 19 1014.0 1013.9 0.0
25/07:30am 26.7 25.1 21.5 73 3.5 ESE 32 35 17 19 1013.7 1013.6 0.0
25/07:00am 26.4 25.0 21.2 73 3.4 ESE 30 35 16 19 1013.4 1013.3 0.0
25/06:30am 25.7 24.2 20.9 75 3.2 ESE 30 35 16 19 1013.2 1013.1 0.0
25/06:00am 25.8 24.8 21.2 76 3.0 ESE 28 35 15 19 1012.9 1012.8 0.0
25/05:30am 25.7 24.9 21.6 78 2.7 ESE 28 32 15 17 1012.6 1012.5 0.0
25/05:00am 25.7 25.0 21.1 76 3.0 ESE 26 32 14 17 1012.2 1012.1 0.0
25/04:30am 25.5 24.6 20.7 75 3.1 ESE 26 32 14 17 1011.7 1011.6 0.0
25/04:00am 25.6 24.9 21.1 76 3.0 ESE 26 32 14 17 1011.6 1011.5 0.0
25/03:30am 25.5 25.1 21.0 76 3.0 ESE 24 30 13 16 1011.5 1011.4 0.0
25/03:00am 25.5 24.6 20.7 75 3.1 ESE 26 30 14 16 1011.5 1011.4 0.0
25/02:30am 25.6 24.9 21.1 76 3.0 ESE 26 30 14 16 1011.7 1011.6 0.0
25/02:00am 25.6 24.9 21.1 76 3.0 ESE 26 30 14 16 1011.9 1011.8 0.0
25/01:30am 25.8 24.8 21.2 76 3.0 ESE 28 32 15 17 1012.2 1012.1 0.0
25/01:00am 25.9 25.3 21.3 76 3.0 ESE 26 32 14 17 1012.5 1012.4 0.0
25/12:30am 25.7 24.4 20.7 74 3.3 ESE 28 33 15 18 1012.7 1012.6 0.0
25/12:00am 25.8 24.5 20.6 73 3.4 ESE 28 32 15 17 1013.1 1013.0 0.0
 
Date/Time
EST
Temp
°C
App
Temp
°C
Dew
Point
°C
Rel
Hum
%
Delta-T
°C
Wind Press
QNH
hPa
Press
MSL
hPa
Rain since
9am
mm
Dir  Spd
km/h
Gust
km/h
Spd
kts
Gust
kts
24/11:30pm 26.0 25.0 21.2 75 3.2 E 28 32 15 17 1013.3 1013.2 0.0
24/11:00pm 26.4 25.7 21.8 76 3.1 E 28 32 15 17 1013.4 1013.3 0.0
24/10:30pm 26.2 25.3 21.4 75 3.2 ENE 28 33 15 18 1013.5 1013.4 0.0
24/10:00pm 26.3 25.3 21.3 74 3.3 E 28 32 15 17 1013.4 1013.3 0.0
24/09:30pm 26.2 25.2 21.2 74 3.3 E 28 32 15 17 1013.4 1013.3 0.0
24/09:00pm 26.2 25.1 21.0 73 3.4 E 28 33 15 18 1013.2 1013.1 0.0
24/08:30pm 26.2 25.2 21.2 74 3.3 ENE 28 30 15 16 1013.0 1012.9 0.0
24/08:00pm 26.3 25.9 21.7 76 3.1 E 26 30 14 16 1012.6 1012.5 0.0
24/07:30pm 26.2 25.6 21.2 74 3.3 E 26 32 14 17 1012.3 1012.2 0.0
24/07:00pm 26.4 26.0 21.6 75 3.2 E 26 30 14 16 1012.0 1011.9 0.0
24/06:30pm 26.3 25.7 21.3 74 3.3 E 26 28 14 15 1011.7 1011.6 0.0
24/06:00pm 26.4 26.0 21.6 75 3.2 E 26 32 14 17 1011.3 1011.2 0.0
24/05:30pm 26.4 25.6 20.9 72 3.6 E 26 30 14 16 1010.9 1010.8 0.0
24/05:00pm 27.1 26.7 21.6 72 3.7 E 26 30 14 16 1010.7 1010.6 0.0
24/04:30pm 27.4 26.9 21.4 70 4.0 E 26 30 14 16 1010.4 1010.3 0.0
24/04:00pm 27.7 27.7 21.7 70 4.0 E 24 28 13 15 1010.3 1010.2 0.0
24/03:30pm 27.9 27.7 21.2 67 4.5 E 24 28 13 15 1010.2 1010.1 0.0
24/03:00pm 28.5 29.3 21.8 67 4.5 E 20 24 11 13 1010.3 1010.2 0.0
24/02:30pm 28.9 29.8 22.6 69 4.3 E 22 26 12 14 1010.5 1010.4 0.0
24/02:00pm 28.8 29.6 22.5 68 4.3 E 22 24 12 13 1010.6 1010.5 0.0
24/01:30pm 29.0 30.2 22.5 68 4.4 E 20 24 11 13 1011.0 1010.9 0.0
24/01:00pm 28.7 29.2 22.0 67 4.5 E 22 24 12 13 1011.3 1011.2 0.0
24/12:30pm 28.6 29.3 22.3 68 4.3 E 22 26 12 14 1011.6 1011.5 0.0
24/12:00pm 29.1 29.8 22.3 66 4.6 E 22 26 12 14 1011.9 1011.8 0.0
24/11:30am 28.7 29.1 22.4 68 4.3 E 24 26 13 14 1012.2 1012.1 0.0
24/11:00am 28.6 28.9 22.3 68 4.3 E 24 28 13 15 1012.6 1012.5 0.0
24/10:30am 28.3 28.5 22.1 69 4.2 ESE 24 26 13 14 1012.7 1012.6 0.0
24/10:00am 28.3 28.5 22.1 69 4.2 E 24 28 13 15 1013.0 1012.9 0.0
24/09:30am 28.0 28.2 22.0 70 4.0 E 24 28 13 15 1013.0 1012.9 0.0
24/09:00am 27.6 27.6 21.6 70 4.0 ESE 24 28 13 15 1013.1 1013.0 0.0
24/08:30am 27.4 27.8 21.7 71 3.8 ESE 22 28 12 15 1013.0 1012.9 0.0
24/08:00am 27.0 27.3 21.5 72 3.7 E 22 24 12 13 1012.8 1012.7 0.0
24/07:30am 26.7 27.1 21.7 74 3.3 E 22 26 12 14 1012.5 1012.4 0.0
24/07:00am 26.5 27.0 21.9 76 3.1 ESE 22 26 12 14 1011.9 1011.8 0.0
24/06:30am 25.9 26.2 21.6 77 2.9 ESE 22 26 12 14 1011.5 1011.4 0.0
24/06:00am 25.4 25.5 21.1 77 2.8 ESE 22 26 12 14 1011.4 1011.3 0.0
24/05:30am 25.1 25.0 20.8 77 2.8 ESE 22 28 12 15 1011.0 1010.9 0.0
24/05:00am 25.2 25.1 20.7 76 3.0 ESE 22 24 12 13 1010.8 1010.7 0.0
24/04:30am 25.4 25.5 21.1 77 2.8 ESE 22 26 12 14 1010.6 1010.5 0.0
24/04:00am 25.4 25.9 20.9 76 3.0 ESE 19 24 10 13 1010.6 1010.5 0.0
24/03:30am 25.3 25.6 20.8 76 3.0 ESE 20 22 11 12 1010.5 1010.4 0.0
24/03:00am 25.2 25.5 20.5 75 3.1 E 19 20 10 11 1010.5 1010.4 0.0
24/02:30am 25.2 25.9 20.5 75 3.1 ESE 17 20 9 11 1010.6 1010.5 0.0
24/02:00am 25.2 25.4 20.2 74 3.3 E 19 20 10 11 1010.9 1010.8 0.0
24/01:30am 25.3 25.8 20.1 73 3.4 E 17 20 9 11 1011.3 1011.2 0.0
24/01:00am 25.5 26.2 20.5 74 3.3 E 17 19 9 10 1011.7 1011.6 0.0
24/12:30am 25.5 26.6 20.5 74 3.3 ESE 15 19 8 10 1012.1 1012.0 0.0
24/12:00am 25.5 26.6 20.5 74 3.3 E 15 17 8 9 1012.5 1012.4 0.0
 
Date/Time
EST
Temp
°C
App
Temp
°C
Dew
Point
°C
Rel
Hum
%
Delta-T
°C
Wind Press
QNH
hPa
Press
MSL
hPa
Rain since
9am
mm
Dir  Spd
km/h
Gust
km/h
Spd
kts
Gust
kts
23/11:30pm 25.7 27.0 20.9 75 3.2 E 15 19 8 10 1012.7 1012.6 0.0

Other formats

Comma delimited format used in spreadsheet applications
http://www.bom.gov.au/fwo/IDQ60801/IDQ60801.94299.axf

JavaScript Object Notation format (JSON) in row-major order
http://www.bom.gov.au/fwo/IDQ60801/IDQ60801.94299.json

Data quality

Most of these data are generated automatically and are frequently updated. Quality checks on data are not normally performed. It is possible for incorrect values to appear. Refer to information at About Latest Weather Observations and please check the disclaimer before using these data.